Terminal Aerodrome Forecast
Issued by NWS Charleston, WV

Home | Current Version | Previous Version | Text Only | Print | Product List | Glossary On
Versions: 1 2 3 4 5 6 7 8 9 10 11 12 13 14 15 16 17 18 19 20 21 22
758
FTUS41 KRLX 260834 AAA
TAFCRW
TAF AMD
KCRW 260834Z 2609/2706 00000KT 2SM BR SCT001
      TEMPO 2609/2613 1/4SM FG BKN001
     FM261300 00000KT 4SM BR SCT002
     FM261400 00000KT P6SM FEW200
     FM261700 00000KT P6SM FEW040
     FM261900 VRB03KT P6SM FEW200=

USA.gov is the U.S. government's official web portal to all federal, state and local government web resources and services.